createdAt,value
2022-08-07T00:02:40.730Z,15.53
2022-08-07T00:05:06.167Z,15.39
2022-08-07T00:07:40.360Z,15.50
2022-08-07T00:10:30.685Z,15.40
2022-08-07T00:13:23.447Z,15.30
2022-08-07T00:15:53.135Z,15.11
2022-08-07T00:18:25.281Z,15.14
2022-08-07T00:21:02.020Z,15.13
2022-08-07T00:23:36.272Z,14.88
2022-08-07T00:26:18.867Z,14.84
2022-08-07T00:28:59.952Z,14.49
2022-08-07T00:31:38.098Z,14.59
2022-08-07T00:34:11.039Z,14.61
2022-08-07T00:36:42.930Z,14.47
2022-08-07T00:39:16.566Z,14.46
2022-08-07T00:42:01.400Z,14.27
2022-08-07T00:44:33.598Z,14.24
2022-08-07T00:47:02.859Z,14.31
2022-08-07T00:50:19.991Z,14.33
2022-08-07T00:52:21.294Z,14.38
2022-08-07T00:54:53.584Z,14.29
2022-08-07T00:57:25.831Z,14.36
2022-08-07T00:59:55.645Z,14.40
2022-08-07T01:02:28.410Z,14.48
2022-08-07T01:04:59.982Z,14.47
2022-08-07T01:07:31.151Z,14.51
2022-08-07T01:10:06.513Z,14.49
2022-08-07T01:12:53.267Z,14.57
2022-08-07T01:15:35.879Z,14.49
2022-08-07T01:18:17.074Z,14.56
2022-08-07T01:21:22.498Z,14.54
2022-08-07T01:23:55.257Z,14.42
2022-08-07T01:26:26.066Z,14.51
2022-08-07T01:28:57.053Z,14.39
2022-08-07T01:31:41.678Z,14.35
2022-08-07T01:34:14.138Z,14.23
2022-08-07T01:36:52.536Z,14.32
2022-08-07T01:39:41.087Z,14.31
2022-08-07T01:42:56.946Z,14.34
2022-08-07T01:45:36.914Z,14.41
2022-08-07T01:48:19.995Z,14.44
2022-08-07T01:51:24.258Z,14.47
2022-08-07T01:54:09.130Z,14.46
2022-08-07T01:56:53.025Z,14.47
2022-08-07T01:59:31.149Z,14.40
2022-08-07T02:02:10.305Z,14.20
2022-08-07T02:04:55.714Z,14.31
2022-08-07T02:07:35.748Z,14.31
2022-08-07T02:10:18.429Z,14.36
2022-08-07T02:12:50.811Z,14.25
2022-08-07T02:15:29.250Z,14.24
2022-08-07T02:18:01.339Z,14.27
2022-08-07T02:20:34.232Z,14.32
2022-08-07T02:23:07.555Z,14.35
2022-08-07T02:26:31.942Z,14.43
2022-08-07T02:28:36.041Z,14.36
2022-08-07T02:31:27.953Z,14.37
2022-08-07T02:34:10.947Z,14.09
2022-08-07T02:36:49.542Z,14.10
2022-08-07T02:39:43.702Z,14.11
2022-08-07T02:42:16.313Z,14.15
2022-08-07T02:44:51.880Z,14.03
2022-08-07T02:47:26.718Z,13.96
2022-08-07T02:50:07.645Z,13.97
2022-08-07T02:52:48.654Z,13.93
2022-08-07T02:55:27.618Z,13.95
2022-08-07T02:58:16.668Z,13.98
2022-08-07T03:00:56.032Z,14.10
2022-08-07T03:03:42.048Z,13.99
2022-08-07T03:06:32.075Z,13.93
2022-08-07T03:09:03.093Z,13.80
2022-08-07T03:11:38.593Z,13.80
2022-08-07T03:14:11.946Z,13.83
2022-08-07T03:16:41.792Z,13.73
2022-08-07T03:19:13.697Z,13.71
2022-08-07T03:21:50.586Z,13.73
2022-08-07T03:24:27.188Z,13.73
2022-08-07T03:27:03.563Z,13.74
2022-08-07T03:29:52.129Z,13.73
2022-08-07T03:32:29.551Z,13.79
2022-08-07T03:35:17.501Z,13.72
2022-08-07T03:37:55.405Z,13.68
2022-08-07T03:40:36.551Z,13.62
2022-08-07T03:43:14.633Z,13.39
2022-08-07T03:45:50.190Z,13.39
2022-08-07T03:48:25.863Z,13.32
2022-08-07T03:50:57.882Z,13.24
2022-08-07T03:54:33.448Z,13.31
2022-08-07T03:56:33.315Z,13.36
2022-08-07T03:59:13.137Z,13.29
2022-08-07T04:01:51.079Z,13.27
2022-08-07T04:04:24.313Z,13.23
2022-08-07T04:07:00.188Z,13.28
2022-08-07T04:09:45.478Z,13.23
2022-08-07T04:12:26.932Z,13.15
2022-08-07T04:15:00.160Z,13.17
2022-08-07T04:18:31.940Z,13.28
2022-08-07T04:20:23.289Z,13.41
2022-08-07T04:23:01.518Z,13.41
2022-08-07T04:25:36.057Z,13.52
2022-08-07T04:28:10.264Z,13.55
2022-08-07T04:30:55.486Z,13.65
2022-08-07T04:33:35.401Z,13.79
2022-08-07T04:36:09.716Z,13.87
2022-08-07T04:38:40.546Z,13.83
2022-08-07T04:41:19.195Z,13.83
2022-08-07T04:44:09.770Z,13.97
2022-08-07T04:47:07.588Z,13.80
2022-08-07T04:49:57.922Z,14.06
2022-08-07T04:52:46.945Z,14.27
2022-08-07T04:58:11.834Z,14.45
2022-08-07T04:59:16.963Z,14.63
2022-08-07T05:01:41.718Z,14.74
2022-08-07T05:04:19.722Z,14.72
2022-08-07T05:07:19.516Z,15.00
2022-08-07T05:10:00.835Z,15.13
2022-08-07T05:12:51.328Z,15.35
2022-08-07T05:15:31.186Z,15.49
2022-08-07T05:18:09.261Z,15.60
2022-08-07T05:20:46.850Z,15.68
2022-08-07T05:23:39.280Z,15.74
2022-08-07T05:26:23.730Z,15.89
2022-08-07T05:29:04.342Z,16.07
2022-08-07T05:31:39.623Z,16.12
2022-08-07T05:34:18.030Z,16.13
2022-08-07T05:36:52.742Z,16.33
2022-08-07T05:40:13.645Z,16.31
2022-08-07T05:42:34.562Z,16.23
2022-08-07T05:45:14.415Z,16.27
2022-08-07T05:48:02.498Z,16.51
2022-08-07T05:50:45.354Z,16.70
2022-08-07T05:54:12.474Z,16.80
2022-08-07T05:56:12.505Z,16.88
2022-08-07T05:58:52.330Z,16.85
2022-08-07T06:01:34.876Z,17.05
2022-08-07T06:04:08.070Z,17.01
2022-08-07T06:06:46.339Z,17.21
2022-08-07T06:09:20.264Z,17.39
2022-08-07T06:12:10.691Z,17.44
2022-08-07T06:14:49.603Z,17.55
2022-08-07T06:17:22.501Z,17.78
2022-08-07T06:20:03.949Z,17.91
2022-08-07T06:22:40.230Z,18.16
2022-08-07T06:25:40.827Z,18.31
2022-08-07T06:28:27.307Z,18.49
2022-08-07T06:30:58.656Z,18.64
2022-08-07T06:33:29.566Z,18.76
2022-08-07T06:36:11.940Z,18.81
2022-08-07T06:38:51.298Z,19.10
2022-08-07T06:42:02.655Z,19.05
2022-08-07T06:44:34.202Z,19.38
2022-08-07T06:47:10.567Z,19.36
2022-08-07T06:49:51.793Z,19.58
2022-08-07T06:52:36.018Z,19.68
2022-08-07T06:55:31.198Z,19.55
2022-08-07T06:58:10.904Z,19.57
2022-08-07T07:00:59.013Z,19.89
2022-08-07T07:03:48.787Z,19.97
2022-08-07T07:06:26.246Z,20.20
2022-08-07T07:08:56.801Z,20.41
2022-08-07T07:12:08.195Z,20.57
2022-08-07T07:14:19.222Z,20.76
2022-08-07T07:16:58.672Z,20.89
2022-08-07T07:19:57.204Z,21.14
2022-08-07T07:22:36.413Z,21.45
2022-08-07T07:26:33.837Z,21.52
2022-08-07T07:28:29.589Z,21.57
2022-08-07T07:31:05.576Z,21.49
2022-08-07T07:33:40.223Z,21.61
2022-08-07T07:36:13.481Z,21.86
2022-08-07T07:38:47.637Z,22.12
2022-08-07T07:41:19.432Z,22.45
2022-08-07T07:44:16.972Z,22.63
2022-08-07T07:46:55.340Z,22.78
2022-08-07T07:50:35.168Z,22.73
2022-08-07T07:52:23.463Z,23.18
2022-08-07T07:54:52.852Z,23.73
2022-08-07T07:57:43.622Z,23.87
2022-08-07T08:00:29.053Z,24.25
2022-08-07T08:03:08.006Z,24.48
2022-08-07T08:05:54.846Z,24.07
2022-08-07T08:08:36.961Z,23.90
2022-08-07T08:11:15.997Z,23.68
2022-08-07T08:13:54.505Z,23.89
2022-08-07T08:16:35.517Z,24.01
2022-08-07T08:19:09.932Z,23.55
2022-08-07T08:22:10.603Z,23.98
2022-08-07T08:25:18.616Z,24.31
2022-08-07T08:28:39.197Z,24.46
2022-08-07T08:35:55.903Z,24.31
2022-08-07T08:38:38.607Z,24.84
2022-08-07T08:41:22.940Z,24.86
2022-08-07T08:44:07.857Z,24.94
2022-08-07T08:46:52.774Z,25.07
2022-08-07T08:49:32.695Z,25.84
2022-08-07T08:52:16.478Z,26.53
2022-08-07T08:55:01.256Z,25.10
2022-08-07T08:57:45.430Z,25.20
2022-08-07T09:00:16.739Z,24.26
2022-08-07T09:02:57.953Z,23.56
2022-08-07T09:05:41.915Z,24.06
2022-08-07T09:08:30.886Z,23.99
2022-08-07T09:11:24.493Z,24.09
2022-08-07T09:14:15.876Z,24.44
2022-08-07T09:17:01.214Z,24.55
2022-08-07T09:19:55.239Z,24.71
2022-08-07T09:24:33.898Z,24.64
2022-08-07T09:25:54.419Z,25.03
2022-08-07T09:29:24.538Z,25.06
2022-08-07T09:31:49.458Z,24.79
2022-08-07T09:34:27.303Z,24.52
2022-08-07T09:37:07.765Z,25.17
2022-08-07T09:39:59.450Z,25.08
2022-08-07T09:42:47.774Z,25.61
2022-08-07T09:47:27.671Z,25.23
2022-08-07T09:49:59.768Z,25.20
2022-08-07T09:52:16.513Z,26.32
2022-08-07T09:55:00.187Z,26.53
2022-08-07T09:58:35.632Z,26.58
2022-08-07T10:01:53.811Z,26.26
2022-08-07T10:04:57.118Z,25.77
2022-08-07T10:07:55.366Z,26.37
2022-08-07T10:11:16.362Z,26.61
2022-08-07T10:14:02.225Z,27.23
2022-08-07T10:17:16.558Z,26.94
2022-08-07T10:20:08.005Z,27.33
2022-08-07T10:23:13.197Z,27.57
2022-08-07T10:26:05.814Z,26.27
2022-08-07T10:28:59.327Z,26.97
2022-08-07T10:31:50.470Z,25.93
2022-08-07T10:34:41.344Z,26.48
2022-08-07T10:38:00.263Z,26.79
2022-08-07T10:40:38.877Z,27.87
2022-08-07T10:43:19.447Z,28.02
2022-08-07T10:46:16.671Z,27.97
2022-08-07T10:52:40.179Z,28.17
2022-08-07T10:55:53.476Z,28.73
2022-08-07T11:03:37.155Z,27.41
2022-08-07T11:06:18.670Z,27.80
2022-08-07T11:09:03.147Z,28.03
2022-08-07T11:11:45.765Z,28.32
2022-08-07T11:14:45.486Z,28.23
2022-08-07T11:17:43.094Z,27.42
2022-08-07T11:20:24.531Z,28.19
2022-08-07T11:23:20.539Z,28.10
2022-08-07T11:26:09.722Z,28.66
2022-08-07T11:28:55.693Z,27.95
2022-08-07T11:31:47.726Z,27.91
2022-08-07T11:34:42.388Z,28.50
2022-08-07T11:37:58.232Z,27.98
2022-08-07T11:40:49.821Z,27.56
2022-08-07T11:43:29.484Z,28.94
2022-08-07T11:46:36.625Z,29.13
2022-08-07T11:50:29.993Z,29.57
2022-08-07T11:52:54.482Z,29.34
2022-08-07T11:56:26.104Z,29.82
2022-08-07T12:00:10.211Z,30.46
2022-08-07T12:02:30.325Z,30.05
2022-08-07T12:05:41.126Z,29.64
2022-08-07T12:08:25.961Z,30.12
2022-08-07T12:11:21.505Z,31.39
2022-08-07T12:14:02.261Z,31.89
2022-08-07T12:16:37.893Z,32.98
2022-08-07T12:19:21.394Z,33.72
2022-08-07T12:22:37.338Z,33.84
2022-08-07T12:26:21.472Z,32.82
2022-08-07T12:29:21.082Z,34.55
2022-08-07T12:32:43.856Z,34.99
2022-08-07T12:35:16.817Z,35.02
2022-08-07T12:38:11.171Z,33.60
2022-08-07T12:40:47.780Z,32.64
2022-08-07T12:44:01.800Z,32.52
2022-08-07T12:46:32.703Z,32.29
2022-08-07T12:49:39.439Z,33.19
2022-08-07T12:52:14.429Z,32.31
2022-08-07T12:55:03.541Z,32.39
2022-08-07T12:58:00.978Z,34.08
2022-08-07T13:00:49.943Z,35.06
2022-08-07T13:04:04.802Z,34.15
2022-08-07T13:07:01.875Z,31.08
2022-08-07T13:10:28.416Z,31.03
2022-08-07T13:13:48.097Z,31.73
2022-08-07T13:16:32.149Z,33.14
2022-08-07T13:19:46.231Z,33.47
2022-08-07T13:22:28.382Z,32.79
2022-08-07T13:25:02.701Z,31.49
2022-08-07T13:28:13.951Z,31.04
2022-08-07T13:30:41.276Z,29.71
2022-08-07T13:34:30.086Z,30.17
2022-08-07T13:36:25.924Z,30.97
2022-08-07T13:39:13.020Z,31.84
2022-08-07T13:41:59.418Z,32.63
2022-08-07T13:44:37.778Z,33.61
2022-08-07T13:47:15.837Z,33.47
2022-08-07T13:50:33.400Z,31.43
2022-08-07T13:52:51.734Z,31.60
2022-08-07T13:55:26.353Z,31.67
2022-08-07T13:58:31.754Z,30.93
2022-08-07T14:01:09.925Z,30.65
2022-08-07T14:04:08.152Z,31.17
2022-08-07T14:06:35.428Z,31.35
2022-08-07T14:09:07.408Z,31.29
2022-08-07T14:11:53.310Z,30.33
2022-08-07T14:14:39.607Z,29.87
2022-08-07T14:17:51.564Z,30.28
2022-08-07T14:20:39.739Z,30.72
2022-08-07T14:23:12.545Z,29.54
2022-08-07T14:25:58.439Z,29.25
2022-08-07T14:28:55.941Z,28.36
2022-08-07T14:31:43.073Z,28.53
2022-08-07T14:34:21.961Z,28.48
2022-08-07T14:36:56.654Z,28.55
2022-08-07T14:40:16.512Z,28.34
2022-08-07T14:42:32.285Z,27.76
2022-08-07T14:45:21.230Z,27.22
2022-08-07T14:47:58.930Z,27.11
2022-08-07T14:50:37.551Z,27.22
2022-08-07T14:53:09.977Z,26.96
2022-08-07T14:55:56.206Z,27.22
2022-08-07T14:58:36.823Z,27.53
2022-08-07T15:01:22.775Z,27.46
2022-08-07T15:03:53.772Z,27.47
2022-08-07T15:06:30.910Z,27.18
2022-08-07T15:09:57.643Z,27.11
2022-08-07T15:12:06.725Z,27.36
2022-08-07T15:14:55.819Z,27.36
2022-08-07T15:17:32.652Z,27.41
2022-08-07T15:26:20.715Z,27.99
2022-08-07T15:31:57.597Z,28.02
2022-08-07T15:38:04.340Z,28.10
2022-08-07T15:40:34.210Z,27.87
2022-08-07T15:43:52.894Z,27.71
2022-08-07T15:46:37.199Z,28.00
2022-08-07T15:49:16.736Z,28.25
2022-08-07T15:54:39.528Z,27.16
2022-08-07T15:57:39.716Z,27.15
2022-08-07T16:00:06.306Z,27.14
2022-08-07T16:02:48.070Z,27.45
2022-08-07T16:05:23.070Z,27.50
2022-08-07T16:08:30.696Z,27.77
2022-08-07T16:11:17.402Z,27.86
2022-08-07T16:14:17.064Z,27.72
2022-08-07T16:17:16.000Z,27.93
2022-08-07T16:20:33.730Z,27.93
2022-08-07T16:23:58.529Z,27.84
2022-08-07T16:26:59.378Z,27.19
2022-08-07T16:30:30.616Z,27.07
2022-08-07T16:34:01.956Z,27.16
2022-08-07T16:36:31.400Z,27.47
2022-08-07T16:39:33.815Z,27.42
2022-08-07T16:42:43.168Z,27.16
2022-08-07T16:46:21.389Z,27.24
2022-08-07T16:50:28.788Z,26.84
2022-08-07T16:53:20.627Z,26.64
2022-08-07T16:56:05.958Z,26.91
2022-08-07T16:59:11.000Z,26.89
2022-08-07T17:01:52.389Z,26.95
2022-08-07T17:04:57.515Z,26.76
2022-08-07T17:07:55.473Z,26.73
2022-08-07T17:10:38.385Z,26.46
2022-08-07T17:14:18.925Z,26.48
2022-08-07T17:16:55.812Z,26.38
2022-08-07T17:20:02.594Z,26.24
2022-08-07T17:22:42.667Z,26.16
2022-08-07T17:25:20.100Z,26.17
2022-08-07T17:28:19.541Z,26.02
2022-08-07T17:31:16.292Z,26.01
2022-08-07T17:34:33.403Z,25.84
2022-08-07T17:36:57.660Z,25.81
2022-08-07T17:39:53.033Z,25.91
2022-08-07T17:42:59.897Z,25.66
2022-08-07T17:45:38.626Z,25.34
2022-08-07T17:48:16.961Z,25.23
2022-08-07T17:51:11.600Z,25.06
2022-08-07T17:54:01.700Z,25.02
2022-08-07T17:56:49.713Z,25.02
2022-08-07T17:59:26.699Z,25.09
2022-08-07T18:02:15.804Z,24.94
2022-08-07T18:04:55.819Z,24.94
2022-08-07T18:07:43.743Z,24.97
2022-08-07T18:10:32.393Z,24.89
2022-08-07T18:13:40.744Z,24.64
2022-08-07T18:16:32.744Z,24.60
2022-08-07T18:21:08.598Z,24.61
2022-08-07T18:22:26.508Z,24.43
2022-08-07T18:25:18.976Z,24.31
2022-08-07T18:28:34.211Z,24.30
2022-08-07T18:31:08.704Z,24.19
2022-08-07T18:34:37.122Z,24.06
2022-08-07T18:38:57.757Z,23.95
2022-08-07T18:40:50.138Z,23.73
2022-08-07T18:43:49.532Z,23.80
2022-08-07T18:46:42.870Z,23.65
2022-08-07T18:50:30.305Z,23.62
2022-08-07T18:52:54.030Z,23.57
2022-08-07T18:55:55.949Z,23.44
2022-08-07T18:58:55.835Z,23.27
2022-08-07T19:02:32.870Z,23.23
2022-08-07T19:05:15.631Z,23.15
2022-08-07T19:07:58.715Z,23.01
2022-08-07T19:10:49.538Z,22.97
2022-08-07T19:13:31.947Z,23.03
2022-08-07T19:17:04.141Z,22.88
2022-08-07T19:19:13.005Z,22.86
2022-08-07T19:22:03.971Z,22.86
2022-08-07T19:24:44.460Z,22.84
2022-08-07T19:28:57.737Z,22.81
2022-08-07T19:31:05.119Z,22.78
2022-08-07T19:33:12.964Z,22.80
2022-08-07T19:35:44.694Z,22.61
2022-08-07T19:38:20.724Z,22.62
2022-08-07T19:40:57.052Z,22.42
2022-08-07T19:43:45.129Z,22.45
2022-08-07T19:46:35.484Z,22.26
2022-08-07T19:49:08.504Z,22.23
2022-08-07T19:51:53.031Z,22.19
2022-08-07T19:54:44.572Z,22.11
2022-08-07T19:58:02.925Z,22.02
2022-08-07T20:00:27.910Z,21.88
2022-08-07T20:03:03.270Z,21.92
2022-08-07T20:06:01.104Z,21.88
2022-08-07T20:08:36.763Z,21.77
2022-08-07T20:11:15.275Z,21.80
2022-08-07T20:14:07.294Z,21.64
2022-08-07T20:16:48.019Z,21.68
2022-08-07T20:24:01.029Z,21.47
2022-08-07T20:26:44.761Z,21.40
2022-08-07T20:29:48.644Z,21.50
2022-08-07T20:32:22.942Z,21.42
2022-08-07T20:35:06.141Z,21.29
2022-08-07T20:37:47.034Z,21.31
2022-08-07T20:40:32.280Z,21.17
2022-08-07T20:43:14.918Z,21.11
2022-08-07T20:46:26.125Z,20.99
2022-08-07T20:49:53.936Z,20.87
2022-08-07T20:51:50.466Z,20.94
2022-08-07T20:54:30.095Z,20.81
2022-08-07T20:57:08.337Z,20.79
2022-08-07T21:00:06.762Z,20.70
2022-08-07T21:02:53.951Z,20.55
2022-08-07T21:05:52.858Z,20.35
2022-08-07T21:08:36.757Z,20.14
2022-08-07T21:11:14.185Z,20.04
2022-08-07T21:14:20.218Z,19.92
2022-08-07T21:17:06.615Z,19.83
2022-08-07T21:19:51.072Z,19.77
2022-08-07T21:22:33.292Z,19.77
2022-08-07T21:25:17.795Z,19.71
2022-08-07T21:28:05.395Z,19.63
2022-08-07T21:30:57.809Z,19.67
2022-08-07T21:33:41.681Z,19.64
2022-08-07T21:36:31.425Z,19.67
2022-08-07T21:39:46.469Z,19.78
2022-08-07T21:42:42.339Z,19.83
2022-08-07T21:46:05.086Z,19.78
2022-08-07T21:48:27.616Z,19.97
2022-08-07T21:51:12.459Z,19.83
2022-08-07T21:53:54.228Z,19.79
2022-08-07T21:56:48.192Z,19.58
2022-08-07T22:00:04.486Z,19.51
2022-08-07T22:02:45.640Z,19.37
2022-08-07T22:05:46.296Z,19.30
2022-08-07T22:08:18.950Z,19.28
2022-08-07T22:10:53.506Z,19.32
2022-08-07T22:13:50.524Z,19.34
2022-08-07T22:16:40.096Z,19.17
2022-08-07T22:19:23.461Z,19.05
2022-08-07T22:22:20.742Z,19.13
2022-08-07T22:25:10.832Z,19.16
2022-08-07T22:28:08.293Z,19.06
2022-08-07T22:30:53.811Z,19.00
2022-08-07T22:33:53.253Z,18.84
2022-08-07T22:36:38.454Z,18.72
2022-08-07T22:39:23.299Z,18.61
2022-08-07T22:42:19.541Z,18.40
2022-08-07T22:44:58.328Z,18.44
2022-08-07T22:48:31.825Z,18.38
2022-08-07T22:51:36.709Z,18.45
2022-08-07T22:54:34.862Z,18.45
2022-08-07T22:57:25.930Z,18.34
2022-08-07T23:00:04.662Z,18.35
2022-08-07T23:02:55.342Z,18.40
2022-08-07T23:06:08.527Z,18.32
2022-08-07T23:10:00.855Z,18.32
2022-08-07T23:12:21.094Z,18.27
2022-08-07T23:16:07.211Z,18.23
2022-08-07T23:18:42.329Z,18.26
2022-08-07T23:21:30.135Z,18.13
2022-08-07T23:24:27.986Z,18.07
2022-08-07T23:28:22.948Z,17.93
2022-08-07T23:30:43.273Z,18.01
2022-08-07T23:34:36.661Z,18.01
2022-08-07T23:37:19.398Z,17.92
2022-08-07T23:39:55.361Z,18.00
2022-08-07T23:42:41.890Z,18.02
2022-08-07T23:45:49.912Z,17.85
2022-08-07T23:48:41.980Z,17.88
2022-08-07T23:53:01.377Z,17.95
2022-08-07T23:54:36.106Z,17.99
2022-08-07T23:57:18.568Z,17.95
